Time;durP1;ratioP1;P1;durP2;ratioP2;P2;SDS_P1;SDS_P2;PMS_P1;PMS_P2;Temp;Humidity;BMP_temperature;BMP_pressure;BME280_temperature;BME280_humidity;BME280_pressure;Samples;Min_cycle;Max_cycle;Signal;HPM_P1;HPM_P2
2022/11/04 00:01:02;;;;;;;1.27;0.17;;;;;;;-0.33;89.90;101420.47;10605274;28;20531;-72
2022/11/04 00:06:05;;;;;;;0.10;0.10;;;;;;;-0.19;89.69;101416.00;10603094;28;20042;-73
2022/11/04 00:37:56;;;;;;;0.30;0.30;;;;;;;0.00;88.25;101434.28;10593715;28;20051;-73
2022/11/04 00:42:58;;;;;;;0.15;0.15;;;;;;;0.04;88.47;101438.28;10597122;28;20460;-73
2022/11/04 00:48:00;;;;;;;0.20;0.20;;;;;;;0.12;88.43;101429.19;10609690;28;20043;-73
2022/11/04 00:53:03;;;;;;;0.30;0.30;;;;;;;0.12;88.54;101438.13;10609333;28;20047;-73
2022/11/04 00:58:05;;;;;;;0.10;0.10;;;;;;;0.36;88.41;101430.69;10579868;28;20052;-73
2022/11/04 01:03:07;;;;;;;3.72;0.20;;;;;;;0.41;88.34;101430.91;10587886;28;20047;-73
2022/11/04 01:08:09;;;;;;;0.63;0.10;;;;;;;0.49;88.21;101419.97;10588559;28;20056;-73
2022/11/04 01:13:12;;;;;;;0.17;0.10;;;;;;;0.27;87.92;101428.09;10590788;28;20055;-73
2022/11/04 01:18:14;;;;;;;0.13;0.13;;;;;;;0.30;88.34;101432.28;10594240;28;20414;-73
2022/11/04 01:23:16;;;;;;;0.22;0.20;;;;;;;0.23;88.08;101424.13;10607418;28;20032;-72
2022/11/04 01:28:19;;;;;;;0.55;0.20;;;;;;;0.17;88.77;101427.59;10606097;28;20445;-73
2022/11/04 01:33:21;;;;;;;0.10;0.10;;;;;;;0.37;89.72;101426.94;10592582;28;20036;-72
2022/11/04 01:38:23;;;;;;;0.47;0.25;;;;;;;0.57;89.87;101430.63;10604125;28;20051;-72
2022/11/04 01:43:44;;;;;;;0.85;0.60;;;;;;;0.68;90.23;101431.94;10609257;28;20127;-72
2022/11/04 01:48:46;;;;;;;1.05;0.52;;;;;;;0.64;90.19;101425.28;10612053;28;20043;-72
2022/11/04 01:53:50;;;;;;;0.32;0.30;;;;;;;0.55;90.63;101427.31;10615217;28;20050;-73
2022/11/04 01:58:55;;;;;;;0.40;0.40;;;;;;;0.55;91.06;101432.69;10602353;28;20043;-72
2022/11/04 02:04:24;;;;;;;0.47;0.47;;;;;;;0.51;91.90;101426.00;10591835;28;20040;-73
2022/11/04 02:09:21;;;;;;;0.85;0.50;;;;;;;0.73;91.49;101427.63;10616118;28;20047;-73
2022/11/04 02:14:24;;;;;;;0.70;0.50;;;;;;;0.46;91.67;101428.47;10585003;28;20051;-72
2022/11/04 02:19:39;;;;;;;0.55;0.55;;;;;;;0.10;91.34;101413.19;10597072;28;20043;-73
2022/11/04 02:25:05;;;;;;;0.38;0.38;;;;;;;0.15;91.13;101413.44;10614585;28;20505;-74
2022/11/04 02:30:13;;;;;;;0.35;0.35;;;;;;;0.32;90.91;101418.56;10607022;28;20040;-74
2022/11/04 02:35:30;;;;;;;0.30;0.30;;;;;;;0.41;90.97;101422.81;10608487;28;20085;-73
2022/11/04 02:40:40;;;;;;;0.20;0.20;;;;;;;0.47;90.10;101420.16;10589137;28;20486;-73
2022/11/04 02:45:47;;;;;;;0.60;0.32;;;;;;;0.40;89.63;101423.84;10606193;28;20058;-73
2022/11/04 02:51:28;;;;;;;0.40;0.40;;;;;;;0.27;88.98;101424.56;10615726;28;20502;-73
2022/11/04 02:56:34;;;;;;;1.90;0.40;;;;;;;0.09;88.85;101430.41;10578792;28;20048;-73
2022/11/04 03:01:38;;;;;;;0.30;0.30;;;;;;;0.20;89.67;101435.31;10601443;28;20056;-73
2022/11/04 03:06:42;;;;;;;0.20;0.10;;;;;;;0.23;89.88;101443.03;10613837;28;20494;-72
2022/11/04 03:11:48;;;;;;;0.40;0.40;;;;;;;0.19;90.32;101438.22;10613178;28;20051;-72
2022/11/04 03:17:21;;;;;;;0.80;0.50;;;;;;;0.19;90.64;101428.25;10607642;28;20082;-73
2022/11/04 03:22:34;;;;;;;0.30;0.30;;;;;;;0.10;90.55;101426.69;10621966;27;20046;-73
2022/11/04 03:28:09;;;;;;;1.45;0.30;;;;;;;0.29;90.88;101426.03;10610460;27;20042;-72
2022/11/04 03:33:27;;;;;;;0.60;0.60;;;;;;;0.36;90.68;101425.28;10580799;28;20040;-72
2022/11/04 03:38:29;;;;;;;1.75;0.70;;;;;;;0.18;89.84;101426.59;10611097;28;20062;-73
2022/11/04 03:43:33;;;;;;;0.73;0.35;;;;;;;0.14;89.33;101427.97;10611143;28;20039;-73
2022/11/04 03:48:35;;;;;;;1.63;0.82;;;;;;;0.12;89.04;101427.34;10609641;28;20043;-73
2022/11/04 03:53:41;;;;;;;0.63;0.50;;;;;;;0.16;89.21;101428.59;10610508;28;20059;-73
2022/11/04 03:58:59;;;;;;;1.33;0.65;;;;;;;0.36;88.94;101427.97;10592984;28;20058;-73
2022/11/04 04:04:22;;;;;;;0.60;0.60;;;;;;;0.45;88.72;101429.50;10601142;28;20042;-73
2022/11/04 04:09:29;;;;;;;0.85;0.63;;;;;;;0.47;88.69;101441.75;10573395;28;20035;-73
2022/11/04 04:14:43;;;;;;;2.20;0.93;;;;;;;0.42;88.50;101441.53;10584046;28;20047;-73
2022/11/04 04:19:53;;;;;;;0.75;0.70;;;;;;;0.31;87.86;101436.63;10555030;28;20048;-73
2022/11/04 04:30:19;;;;;;;0.68;0.40;;;;;;;0.07;85.92;101445.97;10610657;28;20047;-73
2022/11/04 04:35:43;;;;;;;0.63;0.52;;;;;;;-0.10;85.27;101445.38;10595752;27;20036;-73
2022/11/04 04:46:11;;;;;;;1.17;0.40;;;;;;;0.26;84.71;101456.13;10610486;28;20047;-73
2022/11/04 04:51:13;;;;;;;0.32;0.22;;;;;;;0.24;84.93;101449.25;10587207;28;20047;-73
2022/11/04 04:56:15;;;;;;;2.95;0.43;;;;;;;0.16;84.31;101466.38;10599332;28;20035;-73
2022/11/04 05:01:17;;;;;;;1.05;0.35;;;;;;;0.10;84.95;101467.19;10602789;28;20048;-73
2022/11/04 05:06:20;;;;;;;0.50;0.50;;;;;;;-0.04;84.93;101462.66;10570038;28;20048;-73
2022/11/04 05:11:22;;;;;;;0.20;0.13;;;;;;;-0.06;85.36;101476.34;10568453;28;20517;-73
2022/11/04 05:16:49;;;;;;;0.57;0.40;;;;;;;0.02;85.84;101479.97;10599211;28;20039;-73
2022/11/04 05:21:53;;;;;;;0.40;0.40;;;;;;;-0.13;85.97;101482.72;10598263;28;20044;-73
2022/11/04 05:26:55;;;;;;;0.30;0.30;;;;;;;-0.26;85.48;101479.84;10625463;27;20038;-73
2022/11/04 05:32:02;;;;;;;0.25;0.25;;;;;;;0.00;86.10;101477.47;10642200;28;20047;-73
2022/11/04 05:37:04;;;;;;;0.38;0.30;;;;;;;-0.10;85.20;101485.00;10646307;27;20050;-73
2022/11/04 05:42:06;;;;;;;0.17;0.17;;;;;;;0.09;85.97;101487.09;10652741;28;20046;-73
2022/11/04 05:47:12;;;;;;;0.38;0.38;;;;;;;-0.19;85.81;101478.06;10640757;28;20395;-73
2022/11/04 05:52:14;;;;;;;0.32;0.32;;;;;;;-0.25;86.17;101490.44;10611015;28;20402;-73
2022/11/04 05:57:16;;;;;;;0.50;0.50;;;;;;;-0.16;86.62;101493.88;10650323;27;20405;-73
2022/11/04 06:02:19;;;;;;;0.55;0.40;;;;;;;-0.20;86.90;101482.59;10597351;28;20051;-73
2022/11/04 06:07:21;;;;;;;0.50;0.50;;;;;;;-0.13;86.86;101488.09;10618519;28;20405;-73
2022/11/04 06:12:23;;;;;;;0.95;0.70;;;;;;;-0.10;86.36;101487.72;10638699;27;20048;-73
2022/11/04 06:17:25;;;;;;;0.50;0.50;;;;;;;-0.12;86.09;101478.97;10627917;27;20501;-73
2022/11/04 06:28:23;;;;;;;1.42;0.80;;;;;;;-0.23;86.97;101495.66;10651159;27;20059;-73
2022/11/04 06:33:25;;;;;;;0.80;0.73;;;;;;;-0.26;87.13;101509.50;10657723;27;20036;-73
2022/11/04 06:38:30;;;;;;;0.98;0.80;;;;;;;-0.41;86.53;101512.22;10635293;27;20039;-73
2022/11/04 06:43:32;;;;;;;0.65;0.60;;;;;;;-0.55;86.62;101516.59;10658046;27;20043;-73
2022/11/04 06:48:34;;;;;;;0.85;0.73;;;;;;;-0.67;86.43;101512.72;10659013;27;20043;-73
2022/11/04 06:53:36;;;;;;;0.60;0.60;;;;;;;-0.61;86.75;101495.78;10656729;27;20043;-73
2022/11/04 06:59:05;;;;;;;0.80;0.70;;;;;;;-0.59;86.61;101498.31;10658245;27;20563;-73
2022/11/04 07:04:08;;;;;;;0.50;0.50;;;;;;;-0.64;86.19;101505.09;10654116;27;20066;-73
2022/11/04 07:09:12;;;;;;;0.98;0.70;;;;;;;-0.68;86.18;101502.97;10656109;27;20039;-73
2022/11/04 07:14:14;;;;;;;0.70;0.70;;;;;;;-0.62;86.02;101505.75;10653060;27;20501;-73
2022/11/04 07:19:17;;;;;;;0.80;0.80;;;;;;;-0.56;86.64;101520.31;10657502;27;20043;-73
2022/11/04 07:24:19;;;;;;;0.88;0.85;;;;;;;-0.64;86.24;101523.13;10651859;27;20035;-73
2022/11/04 07:29:24;;;;;;;0.77;0.77;;;;;;;-0.70;86.25;101526.53;10652854;27;20055;-73
2022/11/04 07:34:27;;;;;;;0.93;0.77;;;;;;;-0.78;86.55;101515.88;10656886;27;20035;-73
2022/11/04 07:39:29;;;;;;;0.75;0.65;;;;;;;-0.78;85.94;101526.66;10656894;27;20408;-73
2022/11/04 07:44:31;;;;;;;0.70;0.70;;;;;;;-0.80;86.14;101523.31;10634655;27;20027;-73
2022/11/04 07:49:33;;;;;;;1.33;0.55;;;;;;;-0.70;85.95;101530.06;10631523;27;20031;-74
2022/11/04 07:54:36;;;;;;;1.45;1.10;;;;;;;-0.53;86.54;101538.81;10636006;27;20043;-74
2022/11/04 07:59:38;;;;;;;0.80;0.80;;;;;;;-0.61;85.85;101530.84;10650464;27;20053;-73
2022/11/04 08:04:41;;;;;;;0.60;0.50;;;;;;;-0.57;85.59;101542.91;10635590;27;20044;-74
2022/11/04 08:09:43;;;;;;;1.75;0.70;;;;;;;-0.19;85.44;101542.78;10618764;27;20043;-73
2022/11/04 08:14:45;;;;;;;0.70;0.70;;;;;;;-0.17;84.44;101543.47;10652836;27;20042;-73
2022/11/04 08:19:47;;;;;;;0.68;0.68;;;;;;;-0.27;84.01;101546.44;10651098;27;20043;-74
2022/11/04 08:24:49;;;;;;;1.17;0.98;;;;;;;-0.38;83.20;101541.50;10632314;27;20425;-74
2022/11/04 08:29:52;;;;;;;1.38;0.90;;;;;;;-0.42;83.17;101543.75;10652631;27;20043;-73
2022/11/04 08:34:54;;;;;;;1.35;0.90;;;;;;;-0.32;83.83;101543.47;10652974;27;20046;-73
2022/11/04 08:39:56;;;;;;;1.08;0.70;;;;;;;-0.33;83.48;101547.19;10651804;27;20051;-73
2022/11/04 08:44:58;;;;;;;0.60;0.60;;;;;;;-0.36;83.34;101543.00;10633678;27;20039;-73
2022/11/04 08:50:00;;;;;;;1.30;0.77;;;;;;;-0.05;83.72;101547.31;10646895;27;20047;-73
2022/11/04 08:55:03;;;;;;;1.10;0.77;;;;;;;-0.02;82.89;101538.84;10648194;27;20035;-73
2022/11/04 09:00:05;;;;;;;2.00;1.08;;;;;;;-0.11;82.64;101548.09;10651092;27;20055;-73
2022/11/04 09:05:08;;;;;;;2.47;0.95;;;;;;;-0.25;82.78;101532.75;10651920;27;20107;-73
2022/11/04 09:10:11;;;;;;;1.20;1.00;;;;;;;-0.41;82.34;101534.63;10633210;28;20047;-73
2022/11/04 09:15:13;;;;;;;1.83;0.90;;;;;;;-0.54;82.87;101531.75;10651602;28;20097;-73
2022/11/04 09:20:15;;;;;;;1.58;1.10;;;;;;;-0.44;82.93;101532.31;10652395;28;20039;-73
2022/11/04 09:25:18;;;;;;;1.33;1.02;;;;;;;-0.45;83.11;101527.94;10647343;28;20058;-74
2022/11/04 09:30:20;;;;;;;0.73;0.73;;;;;;;-0.54;83.38;101530.91;10651760;28;20058;-73
2022/11/04 09:35:23;;;;;;;1.20;1.05;;;;;;;-0.55;83.76;101537.34;10650373;28;20047;-73
2022/11/04 09:40:26;;;;;;;1.30;1.20;;;;;;;-0.56;83.66;101536.50;10650662;28;20042;-74
2022/11/04 09:45:29;;;;;;;1.83;1.30;;;;;;;-0.53;83.81;101533.41;10627902;27;20051;-73
2022/11/04 09:50:43;;;;;;;1.05;0.90;;;;;;;-0.51;83.59;101538.66;10636614;27;20035;-73
2022/11/04 09:56:13;;;;;;;1.80;1.30;;;;;;;-0.49;83.76;101540.13;10637544;27;20038;-73
2022/11/04 10:01:33;;;;;;;1.75;1.42;;;;;;;-0.46;83.63;101539.75;10617942;27;20050;-74
2022/11/04 10:06:56;;;;;;;4.78;1.60;;;;;;;-0.39;84.28;101537.13;10630476;27;20058;-73
2022/11/04 10:12:03;;;;;;;1.50;1.25;;;;;;;-0.45;83.86;101543.28;10615149;27;20039;-75
2022/11/04 10:17:23;;;;;;;3.50;1.00;;;;;;;-0.47;83.85;101548.88;10656354;27;20035;-75
2022/11/04 10:22:34;;;;;;;2.35;1.27;;;;;;;-0.31;83.80;101559.47;10652429;27;20567;-76
2022/11/04 10:27:38;;;;;;;2.35;1.02;;;;;;;-0.42;83.54;101561.78;10638672;27;20046;-73
2022/11/04 10:32:57;;;;;;;3.22;1.63;;;;;;;-0.52;83.64;101563.91;10634823;27;20042;-80
2022/11/04 10:38:21;;;;;;;2.35;1.00;;;;;;;-0.56;84.11;101559.91;10658609;27;20513;-77
2022/11/04 10:43:35;;;;;;;1.50;1.05;;;;;;;-0.66;83.98;101560.22;10660522;27;20456;-77
2022/11/04 10:49:03;;;;;;;1.58;1.15;;;;;;;-0.56;84.43;101571.53;10646335;27;20441;-77
2022/11/04 10:54:07;;;;;;;2.22;1.10;;;;;;;-0.56;84.79;101576.09;10656157;27;20035;-77
2022/11/04 10:59:12;;;;;;;2.92;1.25;;;;;;;-0.14;85.03;101556.56;10623929;27;20043;-77
2022/11/04 11:04:24;;;;;;;0.95;0.90;;;;;;;0.02;84.90;101556.34;10628124;27;20028;-77
2022/11/04 11:09:39;;;;;;;1.20;1.00;;;;;;;-0.09;84.51;101546.03;10609740;27;20536;-77
2022/11/04 11:14:42;;;;;;;2.97;1.23;;;;;;;-0.16;84.08;101548.66;10636619;27;20244;-74
2022/11/04 11:20:17;;;;;;;1.88;1.40;;;;;;;-0.10;84.55;101555.16;10638569;27;20531;-75
2022/11/04 11:25:19;;;;;;;1.10;0.95;;;;;;;-0.10;84.45;101549.75;10652083;27;20524;-74
2022/11/04 11:30:25;;;;;;;3.45;1.20;;;;;;;-0.19;83.88;101556.28;10637141;27;20511;-74
2022/11/04 11:35:32;;;;;;;1.73;1.30;;;;;;;-0.39;83.82;101547.94;10616726;27;20035;-74
2022/11/04 11:40:36;;;;;;;1.30;1.20;;;;;;;-0.55;84.04;101543.56;10610575;27;20043;-75
2022/11/04 11:45:39;;;;;;;3.22;1.75;;;;;;;-0.62;83.93;101545.34;10625291;27;20054;-74
2022/11/04 11:50:55;;;;;;;2.13;1.40;;;;;;;-0.70;84.23;101545.41;10620802;27;20520;-74
2022/11/04 11:56:33;;;;;;;2.67;1.70;;;;;;;-0.72;84.32;101545.59;10630331;27;20043;-74
2022/11/04 12:01:40;;;;;;;3.28;1.48;;;;;;;-0.72;84.77;101540.19;10656303;27;20055;-74
2022/11/04 12:07:25;;;;;;;1.80;1.33;;;;;;;-0.75;84.48;101535.19;10642265;27;20034;-74
2022/11/04 12:12:49;;;;;;;2.88;1.50;;;;;;;-0.78;84.94;101538.25;10648106;27;20035;-74
2022/11/04 12:18:01;;;;;;;3.50;1.88;;;;;;;-0.80;85.44;101542.16;10659881;27;20051;-75
2022/11/04 12:23:38;;;;;;;2.25;1.42;;;;;;;-0.84;85.54;101544.41;10643522;27;20055;-74
2022/11/04 12:28:53;;;;;;;1.23;1.13;;;;;;;-0.88;85.27;101545.75;10644697;27;20046;-78
2022/11/04 12:34:25;;;;;;;2.78;1.27;;;;;;;-0.92;85.56;101545.31;10610961;27;20035;-74
2022/11/04 12:39:33;;;;;;;1.77;1.33;;;;;;;-0.91;85.61;101549.66;10644127;27;20424;-74
2022/11/04 12:44:41;;;;;;;;;;;;;;;-0.89;85.71;101551.34;10597704;27;20078;-74
2022/11/04 12:49:49;;;;;;;1.30;1.20;;;;;;;-0.82;85.71;101555.00;10609721;27;19930;-73
2022/11/04 12:54:51;;;;;;;1.40;1.30;;;;;;;-0.79;85.44;101562.69;10613130;27;20058;-74
2022/11/04 13:00:06;;;;;;;1.58;1.40;;;;;;;-0.81;86.13;101562.88;10636858;27;20051;-73
2022/11/04 13:05:48;;;;;;;1.67;1.42;;;;;;;-0.69;86.22;101557.88;10640334;27;20042;-73
2022/11/04 13:11:21;;;;;;;1.92;1.40;;;;;;;-0.59;85.86;101566.53;10610909;28;20039;-73
2022/11/04 13:16:23;;;;;;;2.63;1.50;;;;;;;-0.53;86.07;101568.47;10653209;28;20050;-73
2022/11/04 13:21:31;;;;;;;2.17;1.80;;;;;;;-0.67;85.52;101564.75;10628852;27;20047;-73
2022/11/04 13:26:33;;;;;;;1.70;1.50;;;;;;;-0.75;85.89;101566.69;10645649;27;20031;-74
2022/11/04 13:31:45;;;;;;;1.48;1.20;;;;;;;-0.79;86.11;101568.94;10661936;27;20043;-75
2022/11/04 13:36:55;;;;;;;2.40;1.80;;;;;;;-0.79;86.22;101571.63;10624979;27;20054;-74
2022/11/04 13:42:25;;;;;;;1.50;1.35;;;;;;;-0.80;85.36;101572.63;10657958;27;20049;-75
2022/11/04 13:47:35;;;;;;;4.93;1.80;;;;;;;-0.77;85.71;101571.44;10654485;27;20043;-74
2022/11/04 13:52:47;;;;;;;2.85;1.65;;;;;;;-0.78;85.34;101569.75;10623374;27;20043;-73
2022/11/04 13:57:56;;;;;;;4.65;1.40;;;;;;;-0.78;85.29;101569.75;10647415;27;20043;-73
2022/11/04 14:02:59;;;;;;;1.88;1.67;;;;;;;-0.88;85.19;101574.56;10656006;27;20039;-75
2022/11/04 14:08:01;;;;;;;2.17;1.98;;;;;;;-1.07;85.37;101574.06;10643436;27;20050;-74
2022/11/04 14:13:33;;;;;;;2.65;1.90;;;;;;;-1.25;85.44;101585.16;10660225;27;20563;-73
2022/11/04 14:18:41;;;;;;;2.35;1.70;;;;;;;-1.36;85.69;101587.44;10661048;27;20413;-74
2022/11/04 14:23:55;;;;;;;2.00;1.60;;;;;;;-1.44;85.60;101590.19;10655054;27;20616;-74
2022/11/04 14:29:06;;;;;;;2.00;1.50;;;;;;;-1.34;86.45;101591.63;10642496;27;20046;-74
2022/11/04 14:34:23;;;;;;;4.00;1.85;;;;;;;-1.31;86.47;101595.81;10659183;27;20546;-74
2022/11/04 14:39:33;;;;;;;3.35;2.00;;;;;;;-1.36;86.40;101598.22;10634401;27;20512;-73
2022/11/04 14:44:42;;;;;;;4.00;1.52;;;;;;;-1.38;86.38;101600.25;10640874;27;20039;-74
2022/11/04 14:50:03;;;;;;;2.53;2.00;;;;;;;-1.36;86.95;101600.91;10659376;27;20051;-74
2022/11/04 14:55:20;;;;;;;3.50;2.10;;;;;;;-1.32;86.98;101604.91;10624282;27;20038;-74
2022/11/04 15:00:33;;;;;;;2.83;1.83;;;;;;;-1.25;86.85;101611.25;10640738;27;20428;-74
2022/11/04 15:05:37;;;;;;;3.75;2.00;;;;;;;-1.27;86.74;101607.91;10640724;27;20043;-74
2022/11/04 15:10:39;;;;;;;3.22;2.15;;;;;;;-1.40;86.65;101610.34;10640646;27;20039;-73
2022/11/04 15:21:13;;;;;;;3.00;1.85;;;;;;;-1.58;86.31;101619.53;10658035;27;20509;-74
2022/11/04 15:26:26;;;;;;;3.05;2.10;;;;;;;-1.56;86.36;101608.63;10658590;27;20035;-74
2022/11/04 15:31:36;;;;;;;2.85;2.00;;;;;;;-1.56;86.33;101620.22;10640573;27;20045;-74
2022/11/04 15:36:40;;;;;;;3.65;2.42;;;;;;;-1.65;86.21;101626.66;10639683;27;20043;-74
2022/11/04 15:47:33;;;;;;;2.95;2.20;;;;;;;-1.78;86.92;101637.16;10641628;27;20047;-74
2022/11/04 15:52:36;;;;;;;4.97;2.95;;;;;;;-1.78;86.51;101636.31;10657146;27;20046;-74
2022/11/04 15:57:39;;;;;;;3.47;2.58;;;;;;;-1.68;86.50;101626.19;10656606;27;20063;-74
2022/11/04 16:02:56;;;;;;;3.63;2.60;;;;;;;-1.54;86.63;101634.34;10656490;27;20047;-74
2022/11/04 16:08:27;;;;;;;4.85;2.90;;;;;;;-1.35;86.49;101629.50;10636943;27;20058;-74
2022/11/04 16:13:29;;;;;;;5.57;3.20;;;;;;;-1.32;86.24;101637.22;10650715;27;20413;-74
2022/11/04 16:18:44;;;;;;;4.43;3.17;;;;;;;-1.54;85.98;101637.03;10620799;27;20050;-74
2022/11/04 16:23:49;;;;;;;6.30;3.30;;;;;;;-1.54;85.97;101639.72;10637555;27;20567;-74
2022/11/04 16:28:56;;;;;;;6.60;3.72;;;;;;;-1.58;86.01;101641.06;10620361;27;20050;-75
2022/11/04 16:34:23;;;;;;;6.88;3.72;;;;;;;-1.56;86.09;101640.91;10655230;27;20054;-74
2022/11/04 16:39:25;;;;;;;7.50;3.65;;;;;;;-1.58;85.95;101646.44;10655210;27;20039;-74
2022/11/04 16:44:27;;;;;;;7.07;4.38;;;;;;;-1.61;86.06;101644.13;10655156;27;20035;-73
2022/11/04 16:49:33;;;;;;;6.60;4.15;;;;;;;-1.72;86.46;101632.94;10637336;27;20046;-74
2022/11/04 16:54:36;;;;;;;6.95;4.13;;;;;;;-1.80;86.43;101647.25;10636408;27;20046;-74
2022/11/04 16:59:39;;;;;;;7.30;4.00;;;;;;;-1.90;86.89;101642.09;10649028;27;20062;-74
2022/11/04 17:04:42;;;;;;;8.00;5.00;;;;;;;-1.98;87.35;101646.66;10654916;27;20031;-74
2022/11/04 17:09:45;;;;;;;7.82;5.38;;;;;;;-1.99;87.45;101653.88;10632619;27;20485;-74
2022/11/04 17:14:47;;;;;;;7.07;4.35;;;;;;;-1.89;87.72;101656.38;10653743;28;20039;-74
2022/11/04 17:19:49;;;;;;;6.32;4.10;;;;;;;-1.97;88.08;101662.63;10653796;28;20515;-74
2022/11/04 17:24:52;;;;;;;6.57;4.00;;;;;;;-2.05;88.37;101664.50;10653328;28;20035;-74
2022/11/04 17:29:54;;;;;;;8.25;4.90;;;;;;;-1.98;88.72;101646.66;10649676;28;20050;-74
2022/11/04 17:34:57;;;;;;;7.28;5.03;;;;;;;-2.05;89.06;101654.59;10653944;28;20043;-74
2022/11/04 17:39:59;;;;;;;7.53;5.45;;;;;;;-2.16;89.28;101645.03;10648406;28;20498;-74
2022/11/04 17:45:01;;;;;;;9.70;5.50;;;;;;;-2.22;89.63;101640.38;10653362;28;20440;-74
2022/11/04 17:50:32;;;;;;;8.77;5.07;;;;;;;-2.18;89.94;101646.22;10654579;28;20038;-74
2022/11/04 17:55:38;;;;;;;9.87;5.40;;;;;;;-2.24;89.98;101646.94;10653692;28;20058;-74
2022/11/04 18:00:41;;;;;;;6.97;4.70;;;;;;;-2.28;90.16;101657.16;10653093;28;20058;-75
2022/11/04 18:05:43;;;;;;;9.30;5.43;;;;;;;-2.38;90.28;101661.91;10653343;28;20067;-74
2022/11/04 18:10:45;;;;;;;7.88;5.38;;;;;;;-2.35;90.54;101671.47;10658729;27;20490;-74
2022/11/04 18:15:47;;;;;;;8.55;5.15;;;;;;;-2.33;90.34;101670.28;10661590;27;20055;-74
2022/11/04 18:21:01;;;;;;;8.30;5.22;;;;;;;-2.24;90.83;101671.97;10656574;27;20634;-74
2022/11/04 18:31:37;;;;;;;9.88;5.25;;;;;;;-2.35;90.95;101677.69;10660364;27;20043;-74
2022/11/04 18:36:40;;;;;;;8.30;5.18;;;;;;;-2.43;91.19;101680.38;10659281;27;20065;-74
2022/11/04 18:41:42;;;;;;;8.43;5.38;;;;;;;-2.47;91.11;101679.88;10660056;27;20043;-74
2022/11/04 18:46:48;;;;;;;8.95;5.68;;;;;;;-2.31;91.40;101688.94;10660038;27;20039;-74
2022/11/04 18:51:50;;;;;;;8.38;5.18;;;;;;;-2.43;91.69;101688.44;10658935;27;20544;-74
2022/11/04 18:56:54;;;;;;;8.82;4.78;;;;;;;-2.39;91.62;101697.03;10640459;27;20058;-74
2022/11/04 19:01:56;;;;;;;9.93;5.38;;;;;;;-2.40;91.07;101704.25;10601042;27;20046;-74
2022/11/04 19:06:58;;;;;;;8.88;5.53;;;;;;;-2.41;91.60;101702.56;10658895;27;20043;-74
2022/11/04 19:17:22;;;;;;;10.77;6.13;;;;;;;-2.60;91.43;101706.47;10645835;27;20051;-73
2022/11/04 19:22:24;;;;;;;9.27;5.82;;;;;;;-2.65;91.26;101708.78;10657664;27;20047;-74
2022/11/04 19:27:31;;;;;;;14.38;6.32;;;;;;;-2.67;92.21;101715.34;10657938;27;20043;-74
2022/11/04 19:32:34;;;;;;;13.03;6.27;;;;;;;-2.72;91.80;101710.47;10658011;27;20043;-74
2022/11/04 19:37:36;;;;;;;9.70;6.53;;;;;;;-2.80;91.72;101716.69;10657718;27;20043;-74
2022/11/04 19:47:59;;;;;;;11.20;6.55;;;;;;;-2.90;91.50;101729.44;10657642;27;20043;-74
2022/11/04 19:53:01;;;;;;;11.60;6.82;;;;;;;-2.83;91.72;101727.75;10657695;27;20489;-74
2022/11/04 19:58:03;;;;;;;10.30;6.13;;;;;;;-2.76;91.61;101726.09;10638135;27;20039;-73
2022/11/04 20:03:06;;;;;;;10.10;6.38;;;;;;;-2.76;91.68;101734.16;10656215;27;20051;-74
2022/11/04 20:08:08;;;;;;;11.88;5.97;;;;;;;-2.56;91.24;101734.66;10620677;27;20031;-74
2022/11/04 20:18:37;;;;;;;11.35;5.47;;;;;;;-2.53;90.67;101746.91;10639940;27;20043;-74
2022/11/04 20:23:40;;;;;;;8.25;5.43;;;;;;;-2.34;89.97;101740.34;10655399;27;20035;-74
2022/11/04 20:28:42;;;;;;;8.48;5.13;;;;;;;-2.34;89.12;101745.72;10637662;27;20035;-74
2022/11/04 20:33:46;;;;;;;7.78;5.35;;;;;;;-2.48;88.70;101755.31;10636242;27;20054;-74
2022/11/04 20:38:56;;;;;;;8.05;5.72;;;;;;;-2.45;88.60;101741.53;10654108;27;20051;-74
2022/11/04 20:43:58;;;;;;;8.90;5.63;;;;;;;-2.54;88.12;101750.63;10636510;27;20073;-74
2022/11/04 20:49:02;;;;;;;9.00;6.03;;;;;;;-2.61;87.88;101750.44;10636604;27;20045;-73
2022/11/04 20:54:05;;;;;;;10.50;6.25;;;;;;;-2.70;87.87;101748.75;10640140;27;20039;-73
2022/11/04 20:59:08;;;;;;;11.48;6.78;;;;;;;-2.83;88.34;101753.78;10605569;27;20062;-74
2022/11/04 21:04:18;;;;;;;11.50;6.40;;;;;;;-2.90;87.88;101760.84;10576761;28;20048;-74
2022/11/04 21:09:21;;;;;;;10.63;5.82;;;;;;;-2.92;88.16;101761.00;10593866;28;20417;-74
2022/11/04 21:14:23;;;;;;;8.88;6.47;;;;;;;-2.91;88.22;101762.69;10593180;28;20031;-74
2022/11/04 21:19:25;;;;;;;11.90;6.55;;;;;;;-2.91;88.69;101756.47;10652247;28;20051;-74
2022/11/04 21:24:27;;;;;;;11.82;6.65;;;;;;;-2.91;88.75;101760.00;10653744;28;20039;-74
2022/11/04 21:29:29;;;;;;;11.40;6.80;;;;;;;-2.92;88.96;101750.25;10654151;28;20043;-74
2022/11/04 21:34:32;;;;;;;11.75;7.15;;;;;;;-2.91;88.51;101743.03;10635872;28;20043;-73
2022/11/04 21:39:34;;;;;;;13.07;7.28;;;;;;;-2.95;88.81;101752.41;10648153;28;20047;-73
2022/11/04 21:44:36;;;;;;;13.63;7.28;;;;;;;-2.93;89.04;101755.81;10624056;27;20429;-73
2022/11/04 21:49:38;;;;;;;11.70;7.25;;;;;;;-2.88;88.90;101753.44;10661930;27;20047;-73
2022/11/04 21:54:45;;;;;;;12.02;6.88;;;;;;;-2.81;89.09;101754.44;10644113;27;20401;-73
2022/11/04 21:59:47;;;;;;;15.60;7.07;;;;;;;-2.69;88.77;101749.59;10661566;27;20058;-73
2022/11/04 22:04:50;;;;;;;12.20;6.70;;;;;;;-2.62;89.01;101755.97;10643476;27;20446;-74
2022/11/04 22:09:54;;;;;;;17.90;7.55;;;;;;;-2.53;88.23;101747.75;10661120;27;20043;-74
2022/11/04 22:14:56;;;;;;;14.27;7.28;;;;;;;-2.58;87.83;101754.66;10643380;27;20054;-74
2022/11/04 22:19:59;;;;;;;16.90;7.40;;;;;;;-2.91;87.68;101761.84;10623823;27;20035;-73
2022/11/04 22:25:06;;;;;;;14.30;6.38;;;;;;;-2.89;87.75;101760.66;10634370;27;20036;-74
2022/11/04 22:30:09;;;;;;;15.23;7.13;;;;;;;-2.76;87.43;101761.03;10632350;27;20053;-74
2022/11/04 22:35:11;;;;;;;16.25;6.68;;;;;;;-2.89;86.77;101752.59;10649466;27;20047;-74
2022/11/04 22:40:13;;;;;;;16.10;6.15;;;;;;;-2.79;86.62;101763.19;10654849;27;20394;-74
2022/11/04 22:45:15;;;;;;;15.05;6.68;;;;;;;-2.69;86.31;101761.19;10641338;27;20110;-74
2022/11/04 22:50:17;;;;;;;12.80;5.47;;;;;;;-2.89;86.29;101767.88;10640207;27;20042;-74
2022/11/04 22:55:20;;;;;;;11.80;5.95;;;;;;;-2.89;85.75;101781.31;10649370;27;20043;-74
2022/11/04 23:00:22;;;;;;;20.27;6.30;;;;;;;-3.09;86.02;101783.44;10615990;27;20360;-74
2022/11/04 23:05:26;;;;;;;15.85;6.57;;;;;;;-3.30;86.22;101780.34;10613699;28;20062;-74
2022/11/04 23:26:37;;;;;;;20.40;7.13;;;;;;;-3.44;87.89;101774.63;10593620;28;20058;-74
2022/11/04 23:31:39;;;;;;;16.77;8.25;;;;;;;-3.42;88.35;101780.66;10594638;28;20055;-74
2022/11/04 23:42:15;;;;;;;18.42;6.38;;;;;;;-3.54;88.08;101775.72;10609460;28;20059;-74
